Arzamas, Russia
Current Conditions -  °F | °C
As of 5:30 AM on Thursday 27 Nov 2014 (Local Time) from UWGG Reporting Station
Freezing Drizzle Freezing Drizzle  
Wind Chill: 21°   Ceiling: 800
Heat Index: 21°   Visibility: 3mi
Dew Point: 19°   Wind: 2mph
Humidity: 93%   Direction: NA
Pressure: 30.45"   Gusts: NA
Location:  55.38°N, 43.82°E
Report Text: UWGG 270230Z VRB01MPS 4900 -FZDZ BR OVC008 M06/M07 Q1031 FZDZBR OVC005 18390038 RMK QFE766
Loading
Personal Weather Stations






























Interactive Weather Map New forecast layout! Learn more

10-Day Weather Forecast

Advertisements
Track Severe Weather on mobile